Time;durP1;ratioP1;P1;durP2;ratioP2;P2;SDS_P1;SDS_P2;PMS_P1;PMS_P2;Temp;Humidity;BMP_temperature;BMP_pressure;BME280_temperature;BME280_humidity;BME280_pressure;Samples;Min_cycle;Max_cycle;Signal;HPM_P1;HPM_P2
2022/03/27 00:01:42;;;;;;;20.75;10.98;;;;;;;;;;5033945;28;20466;-53
2022/03/27 00:04:08;;;;;;;22.23;10.98;;;;;;;;;;5033710;28;20421;-52
2022/03/27 00:06:34;;;;;;;34.38;15.30;;;;;;;;;;5033507;28;20061;-53
2022/03/27 00:09:00;;;;;;;37.67;18.55;;;;;;;;;;5033595;28;20040;-53
2022/03/27 00:11:30;;;;;;;47.00;21.58;;;;;;;;;;5033987;28;20036;-52
2022/03/27 00:13:57;;;;;;;51.30;23.23;;;;;;;;;;5033220;28;20032;-56
2022/03/27 00:16:23;;;;;;;44.35;24.05;;;;;;;;;;5033396;28;20113;-58
2022/03/27 00:18:50;;;;;;;50.20;22.83;;;;;;;;;;5033638;28;20026;-59
2022/03/27 00:21:16;;;;;;;46.67;22.63;;;;;;;;;;5033489;28;20014;-50
2022/03/27 00:23:43;;;;;;;39.70;21.52;;;;;;;;;;5033612;28;20429;-53
2022/03/27 00:26:10;;;;;;;42.58;21.75;;;;;;;;;;5036661;28;20060;-55
2022/03/27 00:28:36;;;;;;;47.88;21.05;;;;;;;;;;5034369;28;20062;-51
2022/03/27 00:31:04;;;;;;;40.72;20.88;;;;;;;;;;5033672;28;20024;-56
2022/03/27 00:33:31;;;;;;;45.08;21.25;;;;;;;;;;5033281;28;20017;-52
2022/03/27 00:35:57;;;;;;;47.00;21.63;;;;;;;;;;5033540;28;20374;-53
2022/03/27 00:38:24;;;;;;;50.42;20.65;;;;;;;;;;5033573;28;20075;-53
2022/03/27 00:40:51;;;;;;;33.78;15.07;;;;;;;;;;5034055;28;20076;-51
2022/03/27 00:43:17;;;;;;;29.98;12.75;;;;;;;;;;5053188;28;20029;-56
2022/03/27 00:45:44;;;;;;;24.08;10.50;;;;;;;;;;5053435;28;20025;-55
2022/03/27 00:48:10;;;;;;;31.45;12.70;;;;;;;;;;5054199;28;20036;-55
2022/03/27 00:50:37;;;;;;;22.77;11.82;;;;;;;;;;5057286;28;20612;-53
2022/03/27 00:53:03;;;;;;;27.25;11.77;;;;;;;;;;5057675;28;20483;-56
2022/03/27 00:55:30;;;;;;;22.38;10.27;;;;;;;;;;5056528;28;20017;-53
2022/03/27 00:57:56;;;;;;;25.27;9.90;;;;;;;;;;5057016;28;20025;-51
2022/03/27 01:00:45;;;;;;;28.65;12.35;;;;;;;;;;5057230;28;20029;-54
2022/03/27 01:03:16;;;;;;;29.08;13.50;;;;;;;;;;5053728;28;20041;-50
2022/03/27 01:05:43;;;;;;;35.72;16.17;;;;;;;;;;5057075;28;20111;-55
2022/03/27 01:08:10;;;;;;;25.27;12.80;;;;;;;;;;5057219;28;20060;-54
2022/03/27 01:10:37;;;;;;;30.40;14.20;;;;;;;;;;5057179;28;20486;-56
2022/03/27 01:13:23;;;;;;;34.05;15.38;;;;;;;;;;5056726;28;20064;-54
2022/03/27 01:15:57;;;;;;;32.15;14.55;;;;;;;;;;5050429;28;20033;-52
2022/03/27 01:18:23;;;;;;;35.30;14.02;;;;;;;;;;5036677;28;20017;-54
2022/03/27 01:20:49;;;;;;;32.42;15.15;;;;;;;;;;5037189;28;20026;-55
2022/03/27 01:23:16;;;;;;;33.80;17.35;;;;;;;;;;5036627;28;20053;-54
2022/03/27 01:25:44;;;;;;;35.40;16.38;;;;;;;;;;5035650;28;20067;-56
2022/03/27 01:28:10;;;;;;;35.75;17.33;;;;;;;;;;5036763;28;20030;-55
2022/03/27 01:30:37;;;;;;;36.03;17.65;;;;;;;;;;5036460;28;20037;-52
2022/03/27 01:33:05;;;;;;;39.95;18.00;;;;;;;;;;5036859;28;20021;-52
2022/03/27 01:35:31;;;;;;;40.35;17.40;;;;;;;;;;5037032;28;20530;-53
2022/03/27 01:37:57;;;;;;;36.85;17.85;;;;;;;;;;5036301;28;20524;-54
2022/03/27 01:40:23;;;;;;;41.55;18.10;;;;;;;;;;5036647;28;20398;-52
2022/03/27 01:42:52;;;;;;;35.25;17.67;;;;;;;;;;5036661;28;20033;-54
2022/03/27 01:45:19;;;;;;;34.22;16.20;;;;;;;;;;5036758;28;20104;-56
2022/03/27 01:47:45;;;;;;;36.88;15.95;;;;;;;;;;5036416;28;20026;-54
2022/03/27 01:50:11;;;;;;;33.03;16.10;;;;;;;;;;5035795;28;20031;-54
2022/03/27 01:52:38;;;;;;;30.90;15.32;;;;;;;;;;5036358;28;20051;-56
2022/03/27 01:55:07;;;;;;;34.95;17.10;;;;;;;;;;5035456;28;20022;-53
2022/03/27 01:57:33;;;;;;;34.05;18.15;;;;;;;;;;5034710;28;20387;-55
2022/03/27 01:59:59;;;;;;;45.88;18.65;;;;;;;;;;5035738;28;20049;-53
2022/03/27 02:02:26;;;;;;;39.17;18.42;;;;;;;;;;5035827;28;20021;-55
2022/03/27 02:04:52;;;;;;;45.13;21.02;;;;;;;;;;5035562;28;20033;-57
2022/03/27 02:07:18;;;;;;;47.85;24.13;;;;;;;;;;5036055;28;20387;-52
2022/03/27 02:09:45;;;;;;;38.95;18.30;;;;;;;;;;5036308;28;20013;-55
2022/03/27 02:12:12;;;;;;;25.35;11.50;;;;;;;;;;5035594;28;20083;-53
2022/03/27 02:14:39;;;;;;;27.58;11.52;;;;;;;;;;5035998;28;20386;-51
2022/03/27 02:17:07;;;;;;;24.88;10.52;;;;;;;;;;5036208;28;20032;-54
2022/03/27 02:19:34;;;;;;;24.98;10.45;;;;;;;;;;5035262;28;20030;-52
2022/03/27 02:22:00;;;;;;;23.83;12.40;;;;;;;;;;5036078;28;20029;-52
2022/03/27 02:24:26;;;;;;;30.48;15.02;;;;;;;;;;5035205;28;20025;-54
2022/03/27 02:26:52;;;;;;;36.40;16.40;;;;;;;;;;5035368;28;20050;-53
2022/03/27 02:29:19;;;;;;;38.30;18.38;;;;;;;;;;5035711;28;20017;-53
2022/03/27 02:31:46;;;;;;;46.47;20.67;;;;;;;;;;5035599;28;20028;-57
2022/03/27 02:34:12;;;;;;;49.38;21.02;;;;;;;;;;5035298;28;20109;-53
2022/03/27 02:36:38;;;;;;;42.72;20.30;;;;;;;;;;5035256;28;20048;-53
2022/03/27 02:39:05;;;;;;;41.45;20.70;;;;;;;;;;5035162;28;20017;-54
2022/03/27 02:41:31;;;;;;;42.20;19.23;;;;;;;;;;5035202;28;20022;-53
2022/03/27 02:43:58;;;;;;;44.28;19.60;;;;;;;;;;5035501;28;20047;-53
2022/03/27 02:46:24;;;;;;;39.53;20.08;;;;;;;;;;5034976;28;20092;-52
2022/03/27 02:48:50;;;;;;;50.05;21.70;;;;;;;;;;5035848;28;20108;-51
2022/03/27 02:51:16;;;;;;;40.85;21.05;;;;;;;;;;5034957;28;20463;-56
2022/03/27 02:53:43;;;;;;;49.38;23.35;;;;;;;;;;5034679;28;20025;-54
2022/03/27 02:56:09;;;;;;;49.17;23.88;;;;;;;;;;5035444;28;20108;-57
2022/03/27 02:58:36;;;;;;;53.70;22.42;;;;;;;;;;5035113;28;20084;-52
2022/03/27 03:01:03;;;;;;;47.45;21.88;;;;;;;;;;5034916;28;20026;-53
2022/03/27 03:03:29;;;;;;;53.00;23.02;;;;;;;;;;5034993;28;20029;-56
2022/03/27 03:05:55;;;;;;;40.88;21.38;;;;;;;;;;5034757;28;20037;-49
2022/03/27 03:08:21;;;;;;;49.30;22.40;;;;;;;;;;5034329;28;20041;-56
2022/03/27 03:10:48;;;;;;;44.90;21.20;;;;;;;;;;5034188;28;20028;-53
2022/03/27 03:13:14;;;;;;;45.33;20.23;;;;;;;;;;5034842;28;20375;-53
2022/03/27 03:15:42;;;;;;;43.88;19.65;;;;;;;;;;5034212;28;20021;-53
2022/03/27 03:18:10;;;;;;;42.97;19.98;;;;;;;;;;5034654;28;20037;-58
2022/03/27 03:20:36;;;;;;;44.85;21.08;;;;;;;;;;5034511;28;20438;-53
2022/03/27 03:23:03;;;;;;;45.88;21.60;;;;;;;;;;5033546;28;20031;-57
2022/03/27 03:25:30;;;;;;;43.05;21.52;;;;;;;;;;5034780;28;20458;-54
2022/03/27 03:27:56;;;;;;;49.17;20.65;;;;;;;;;;5034241;28;20040;-54
2022/03/27 03:30:23;;;;;;;47.78;22.25;;;;;;;;;;5034478;28;20018;-53
2022/03/27 03:32:49;;;;;;;46.13;22.23;;;;;;;;;;5034563;28;20029;-51
2022/03/27 03:35:16;;;;;;;42.03;22.30;;;;;;;;;;5034308;28;20079;-54
2022/03/27 03:37:42;;;;;;;50.88;23.15;;;;;;;;;;5034377;28;20025;-52
2022/03/27 03:40:08;;;;;;;44.53;21.73;;;;;;;;;;5034322;28;20041;-57
2022/03/27 03:42:35;;;;;;;47.92;20.95;;;;;;;;;;5033878;28;20029;-54
2022/03/27 03:45:01;;;;;;;47.40;21.50;;;;;;;;;;5034013;28;20034;-53
2022/03/27 03:47:27;;;;;;;45.30;20.90;;;;;;;;;;5034150;28;20049;-52
2022/03/27 03:49:53;;;;;;;42.15;21.52;;;;;;;;;;5033894;28;20018;-56
2022/03/27 03:52:20;;;;;;;39.50;21.08;;;;;;;;;;5034047;28;20030;-55
2022/03/27 03:54:46;;;;;;;46.45;21.83;;;;;;;;;;5033518;28;20024;-50
2022/03/27 03:57:12;;;;;;;45.33;21.80;;;;;;;;;;5033488;28;20021;-52
2022/03/27 03:59:39;;;;;;;45.65;21.08;;;;;;;;;;5034836;28;20143;-55
2022/03/27 04:02:09;;;;;;;40.60;18.73;;;;;;;;;;5033937;28;20049;-51
2022/03/27 04:04:36;;;;;;;42.45;19.83;;;;;;;;;;5034083;28;20025;-54
2022/03/27 04:07:06;;;;;;;34.95;18.27;;;;;;;;;;5033526;28;20034;-51
2022/03/27 04:09:32;;;;;;;34.70;19.13;;;;;;;;;;5034155;28;20504;-55
2022/03/27 04:11:59;;;;;;;47.83;20.83;;;;;;;;;;5033449;28;20026;-54
2022/03/27 04:14:25;;;;;;;41.88;19.70;;;;;;;;;;5033655;28;20025;-54
2022/03/27 04:16:51;;;;;;;38.60;20.63;;;;;;;;;;5033456;28;20028;-57
2022/03/27 04:19:18;;;;;;;34.88;18.55;;;;;;;;;;5033744;28;20025;-54
2022/03/27 04:21:44;;;;;;;39.58;20.52;;;;;;;;;;5033258;28;20031;-56
2022/03/27 04:24:10;;;;;;;38.83;19.17;;;;;;;;;;5034074;28;20022;-56
2022/03/27 04:26:39;;;;;;;38.83;19.35;;;;;;;;;;5033553;28;20129;-53
2022/03/27 04:29:05;;;;;;;40.13;19.15;;;;;;;;;;5033626;28;20082;-49
2022/03/27 04:31:31;;;;;;;37.70;20.23;;;;;;;;;;5033743;28;20026;-53
2022/03/27 04:33:58;;;;;;;41.80;20.73;;;;;;;;;;5033632;28;20033;-55
2022/03/27 04:36:24;;;;;;;49.90;20.98;;;;;;;;;;5033470;28;20143;-54
2022/03/27 04:38:51;;;;;;;42.90;20.83;;;;;;;;;;5033182;28;20509;-55
2022/03/27 04:41:17;;;;;;;46.17;19.83;;;;;;;;;;5032894;28;20079;-53
2022/03/27 04:43:47;;;;;;;40.70;20.73;;;;;;;;;;5033344;28;20036;-55
2022/03/27 04:46:13;;;;;;;36.10;18.83;;;;;;;;;;5033007;28;20032;-53
2022/03/27 04:48:40;;;;;;;37.15;17.50;;;;;;;;;;5033351;28;20105;-55
2022/03/27 04:51:06;;;;;;;41.53;17.08;;;;;;;;;;5033137;28;20044;-52
2022/03/27 04:53:32;;;;;;;78.88;32.88;;;;;;;;;;5032975;28;20021;-54
2022/03/27 04:55:58;;;;;;;91.13;43.28;;;;;;;;;;5033136;28;20112;-52
2022/03/27 04:58:24;;;;;;;97.35;42.03;;;;;;;;;;5033660;28;20018;-51
2022/03/27 05:00:50;;;;;;;51.13;23.65;;;;;;;;;;5033047;28;20024;-50
2022/03/27 05:03:16;;;;;;;32.55;16.48;;;;;;;;;;5032909;28;20074;-53
2022/03/27 05:05:43;;;;;;;37.92;15.90;;;;;;;;;;5033037;28;20025;-55
2022/03/27 05:08:10;;;;;;;27.85;12.57;;;;;;;;;;5032925;28;20340;-52
2022/03/27 05:10:37;;;;;;;36.47;13.23;;;;;;;;;;5033397;28;20014;-54
2022/03/27 05:13:03;;;;;;;32.90;14.95;;;;;;;;;;5032705;28;20033;-54
2022/03/27 05:15:30;;;;;;;35.58;19.38;;;;;;;;;;5031815;28;20430;-55
2022/03/27 05:17:58;;;;;;;51.55;22.20;;;;;;;;;;5032847;28;20064;-56
2022/03/27 05:20:25;;;;;;;51.90;23.88;;;;;;;;;;5032436;28;20029;-58
2022/03/27 05:22:51;;;;;;;50.42;24.83;;;;;;;;;;5032071;28;20021;-57
2022/03/27 05:25:18;;;;;;;55.00;26.25;;;;;;;;;;5031215;28;20033;-57
2022/03/27 05:27:53;;;;;;;55.33;26.08;;;;;;;;;;5031011;28;20514;-55
2022/03/27 05:30:21;;;;;;;50.58;24.55;;;;;;;;;;5031878;28;20025;-57
2022/03/27 05:32:47;;;;;;;48.40;24.30;;;;;;;;;;5032686;28;20037;-54
2022/03/27 05:35:14;;;;;;;45.75;22.60;;;;;;;;;;5035750;28;20076;-55
2022/03/27 05:37:40;;;;;;;42.40;21.52;;;;;;;;;;5035080;28;20053;-54
2022/03/27 05:40:08;;;;;;;47.45;21.27;;;;;;;;;;5036341;28;20103;-54
2022/03/27 05:42:35;;;;;;;42.22;21.10;;;;;;;;;;5036414;28;20030;-56
2022/03/27 05:45:01;;;;;;;34.22;14.50;;;;;;;;;;5036234;28;20390;-57
2022/03/27 05:47:28;;;;;;;21.63;11.68;;;;;;;;;;5035981;28;20067;-54
2022/03/27 05:49:54;;;;;;;19.98;9.73;;;;;;;;;;5036402;28;20034;-56
2022/03/27 05:52:22;;;;;;;24.73;10.68;;;;;;;;;;5036098;28;20025;-51
2022/03/27 05:54:48;;;;;;;21.20;9.88;;;;;;;;;;5036060;28;20021;-55
2022/03/27 05:57:14;;;;;;;22.48;9.82;;;;;;;;;;5035877;28;20086;-53
2022/03/27 05:59:41;;;;;;;21.77;9.52;;;;;;;;;;5036217;28;20025;-53
2022/03/27 06:02:07;;;;;;;23.38;10.63;;;;;;;;;;5036625;28;20554;-55
2022/03/27 06:04:33;;;;;;;20.10;10.82;;;;;;;;;;5035772;28;20390;-53
2022/03/27 06:06:59;;;;;;;29.05;12.15;;;;;;;;;;5035957;28;20039;-54
2022/03/27 06:09:25;;;;;;;18.92;10.93;;;;;;;;;;5035643;28;20504;-55
2022/03/27 06:11:51;;;;;;;16.73;7.82;;;;;;;;;;5035262;28;20355;-53
2022/03/27 06:14:18;;;;;;;21.52;8.98;;;;;;;;;;5036023;28;20451;-58
2022/03/27 06:16:45;;;;;;;29.10;12.98;;;;;;;;;;5035679;28;20155;-55
2022/03/27 06:19:11;;;;;;;34.83;17.65;;;;;;;;;;5035421;28;20542;-55
2022/03/27 06:21:37;;;;;;;40.92;19.50;;;;;;;;;;5035836;28;20072;-51
2022/03/27 06:24:04;;;;;;;30.55;17.50;;;;;;;;;;5035688;28;20109;-53
2022/03/27 06:26:30;;;;;;;38.88;19.45;;;;;;;;;;5035460;28;20045;-55
2022/03/27 06:28:56;;;;;;;40.10;22.45;;;;;;;;;;5035437;28;20049;-58
2022/03/27 06:31:23;;;;;;;48.15;23.25;;;;;;;;;;5035344;28;20047;-56
2022/03/27 06:33:49;;;;;;;38.92;22.40;;;;;;;;;;5035880;28;20040;-55
2022/03/27 06:36:15;;;;;;;44.80;22.02;;;;;;;;;;5035248;28;20382;-54
2022/03/27 06:38:41;;;;;;;45.47;21.23;;;;;;;;;;5034897;28;20028;-57
2022/03/27 06:41:07;;;;;;;42.15;20.58;;;;;;;;;;5034325;28;20044;-52
2022/03/27 06:43:36;;;;;;;45.45;20.25;;;;;;;;;;5035362;28;20030;-50
2022/03/27 06:46:02;;;;;;;34.55;19.05;;;;;;;;;;5035019;28;20032;-52
2022/03/27 06:48:28;;;;;;;32.15;18.13;;;;;;;;;;5036944;28;20056;-53
2022/03/27 06:50:55;;;;;;;37.00;17.98;;;;;;;;;;5054559;28;20476;-53
2022/03/27 06:53:24;;;;;;;36.78;19.27;;;;;;;;;;5055083;28;20029;-53
2022/03/27 06:55:50;;;;;;;45.33;19.58;;;;;;;;;;5054943;28;20017;-52
2022/03/27 06:58:16;;;;;;;38.50;18.95;;;;;;;;;;5054258;28;20488;-57
2022/03/27 07:03:27;;;;;;;36.00;16.42;;;;;;;;;;5053146;28;20082;-55
2022/03/27 07:05:54;;;;;;;37.58;15.75;;;;;;;;;;5054177;28;20036;-51
2022/03/27 07:08:20;;;;;;;32.50;16.75;;;;;;;;;;5053667;28;20029;-55
2022/03/27 07:10:48;;;;;;;28.52;15.15;;;;;;;;;;5054075;28;20021;-54
2022/03/27 07:13:15;;;;;;;29.58;15.05;;;;;;;;;;5054480;28;20115;-50
2022/03/27 07:15:42;;;;;;;27.60;14.23;;;;;;;;;;5054744;28;20021;-51
2022/03/27 07:18:08;;;;;;;35.55;14.73;;;;;;;;;;5054817;28;20029;-53
2022/03/27 07:20:36;;;;;;;27.70;14.15;;;;;;;;;;5054548;28;20017;-56
2022/03/27 07:23:04;;;;;;;23.33;13.57;;;;;;;;;;5054549;28;20048;-56
2022/03/27 07:25:32;;;;;;;30.58;13.55;;;;;;;;;;5054262;28;20033;-51
2022/03/27 07:27:59;;;;;;;24.00;13.57;;;;;;;;;;5054109;28;20052;-53
2022/03/27 07:30:25;;;;;;;25.70;13.80;;;;;;;;;;5054375;28;20024;-55
2022/03/27 07:32:52;;;;;;;25.15;12.85;;;;;;;;;;5054027;28;20025;-53
2022/03/27 07:35:18;;;;;;;25.80;13.38;;;;;;;;;;5054282;28;20146;-55
2022/03/27 07:37:45;;;;;;;28.52;14.23;;;;;;;;;;5054580;28;20083;-56
2022/03/27 07:40:13;;;;;;;30.90;16.00;;;;;;;;;;5053848;28;20025;-51
2022/03/27 07:42:40;;;;;;;29.00;14.27;;;;;;;;;;5054225;28;20025;-52
2022/03/27 07:45:06;;;;;;;25.52;13.77;;;;;;;;;;5053352;28;20448;-55
2022/03/27 07:47:33;;;;;;;34.05;12.98;;;;;;;;;;5053616;28;20458;-58
2022/03/27 07:49:59;;;;;;;29.20;12.13;;;;;;;;;;5054469;28;20435;-56
2022/03/27 07:52:26;;;;;;;23.75;11.13;;;;;;;;;;5054278;28;20025;-57
2022/03/27 07:54:52;;;;;;;22.70;11.10;;;;;;;;;;5053426;28;20434;-56
2022/03/27 07:57:20;;;;;;;19.58;10.60;;;;;;;;;;5053132;28;20489;-55
2022/03/27 07:59:47;;;;;;;25.25;10.23;;;;;;;;;;5053884;28;20025;-57
2022/03/27 08:02:13;;;;;;;22.55;9.38;;;;;;;;;;5053527;28;20021;-54
2022/03/27 08:04:39;;;;;;;24.42;9.65;;;;;;;;;;5054019;28;20138;-55
2022/03/27 08:07:05;;;;;;;16.88;9.75;;;;;;;;;;5052215;28;20040;-53
2022/03/27 08:09:31;;;;;;;20.90;10.55;;;;;;;;;;5052461;28;20017;-54
2022/03/27 08:11:57;;;;;;;23.17;11.40;;;;;;;;;;5053423;28;20033;-54
2022/03/27 08:14:31;;;;;;;23.67;11.88;;;;;;;;;;5053736;28;20051;-56
2022/03/27 08:16:57;;;;;;;21.45;11.52;;;;;;;;;;5051292;28;20078;-56
2022/03/27 08:19:23;;;;;;;27.60;11.55;;;;;;;;;;5051413;28;20025;-57
2022/03/27 08:21:50;;;;;;;29.52;12.23;;;;;;;;;;5052528;28;20031;-54
2022/03/27 08:24:16;;;;;;;27.08;11.43;;;;;;;;;;5053505;28;20033;-53
2022/03/27 08:26:59;;;;;;;26.30;11.90;;;;;;;;;;5053792;28;20091;-55
2022/03/27 08:29:30;;;;;;;20.23;11.27;;;;;;;;;;5053204;28;20017;-64
2022/03/27 08:31:58;;;;;;;18.88;10.70;;;;;;;;;;5053095;28;20052;-53
2022/03/27 08:34:25;;;;;;;20.65;10.68;;;;;;;;;;5053451;28;20014;-57
2022/03/27 08:36:51;;;;;;;22.60;11.25;;;;;;;;;;5053162;28;20025;-53
2022/03/27 08:39:18;;;;;;;22.30;10.95;;;;;;;;;;5053230;28;20401;-52
2022/03/27 08:41:44;;;;;;;23.90;11.38;;;;;;;;;;5053680;28;20029;-54
2022/03/27 08:44:11;;;;;;;20.05;11.18;;;;;;;;;;5052835;28;20477;-52
2022/03/27 08:46:37;;;;;;;26.15;10.88;;;;;;;;;;5053301;28;20041;-50
2022/03/27 08:49:27;;;;;;;24.52;12.40;;;;;;;;;;5053100;28;20474;-50
2022/03/27 08:52:08;;;;;;;28.75;11.70;;;;;;;;;;5050074;28;20033;-52
2022/03/27 08:54:34;;;;;;;;;;;;;;;;;;5053956;28;20052;-55
2022/03/27 08:57:20;;;;;;;20.90;11.75;;;;;;;;;;5052740;28;19966;-54
2022/03/27 08:59:48;;;;;;;19.38;10.77;;;;;;;;;;5053086;28;20028;-55
2022/03/27 09:02:14;;;;;;;26.38;11.60;;;;;;;;;;5053517;28;20040;-55
2022/03/27 09:04:41;;;;;;;27.77;10.77;;;;;;;;;;5053112;28;20017;-49
2022/03/27 09:07:07;;;;;;;24.52;10.77;;;;;;;;;;5053548;28;20059;-54
2022/03/27 09:09:35;;;;;;;27.50;11.38;;;;;;;;;;5055064;28;20017;-53
2022/03/27 09:12:03;;;;;;;20.48;10.48;;;;;;;;;;5056306;28;20429;-54
2022/03/27 09:14:31;;;;;;;25.52;11.85;;;;;;;;;;5056368;28;20482;-54
2022/03/27 09:17:07;;;;;;;20.33;11.52;;;;;;;;;;5057185;28;20385;-55
2022/03/27 09:19:34;;;;;;;21.23;11.88;;;;;;;;;;5056766;28;20096;-53
2022/03/27 09:22:03;;;;;;;24.73;12.90;;;;;;;;;;5056893;28;20406;-50
2022/03/27 09:24:35;;;;;;;28.13;12.48;;;;;;;;;;5056864;28;20025;-52
2022/03/27 09:27:01;;;;;;;25.73;13.48;;;;;;;;;;5056347;28;20539;-52
2022/03/27 09:29:28;;;;;;;29.70;12.43;;;;;;;;;;5056439;28;20378;-53
2022/03/27 09:31:58;;;;;;;21.60;12.63;;;;;;;;;;5056093;28;20493;-52
2022/03/27 09:34:24;;;;;;;25.00;12.07;;;;;;;;;;5056093;28;20060;-50
2022/03/27 09:36:51;;;;;;;22.05;12.65;;;;;;;;;;5056591;28;20043;-54
2022/03/27 09:39:24;;;;;;;28.30;12.40;;;;;;;;;;5055770;28;20025;-54
2022/03/27 09:41:54;;;;;;;22.77;12.18;;;;;;;;;;5056053;28;20024;-54
2022/03/27 09:44:34;;;;;;;25.50;12.40;;;;;;;;;;5056211;28;20032;-48
2022/03/27 09:47:10;;;;;;;21.85;11.48;;;;;;;;;;5055526;28;20039;-55
2022/03/27 09:49:41;;;;;;;21.35;11.95;;;;;;;;;;5055974;28;20025;-58
2022/03/27 09:52:20;;;;;;;21.10;11.60;;;;;;;;;;5055561;28;20021;-56
2022/03/27 09:54:57;;;;;;;25.45;11.45;;;;;;;;;;5055440;28;20103;-54
2022/03/27 09:57:25;;;;;;;24.05;12.40;;;;;;;;;;5056140;28;20021;-53
2022/03/27 09:59:52;;;;;;;24.52;11.48;;;;;;;;;;5055822;28;20096;-52
2022/03/27 10:02:19;;;;;;;20.75;10.90;;;;;;;;;;5055279;28;20416;-51
2022/03/27 10:04:58;;;;;;;28.95;11.45;;;;;;;;;;5054678;28;20029;-50
2022/03/27 10:07:25;;;;;;;20.02;12.38;;;;;;;;;;5054997;28;20025;-51
2022/03/27 10:09:55;;;;;;;31.80;13.75;;;;;;;;;;5055713;28;20079;-51
2022/03/27 10:12:29;;;;;;;29.42;13.07;;;;;;;;;;5056201;28;20036;-52
2022/03/27 10:14:57;;;;;;;24.85;12.10;;;;;;;;;;5055198;28;20028;-53
2022/03/27 10:17:26;;;;;;;22.88;11.73;;;;;;;;;;5055561;28;20032;-52
2022/03/27 10:19:54;;;;;;;28.05;12.68;;;;;;;;;;5055039;28;20374;-53
2022/03/27 10:22:21;;;;;;;25.95;12.45;;;;;;;;;;5053668;28;20017;-53
2022/03/27 10:24:52;;;;;;;24.38;12.10;;;;;;;;;;5054463;28;20028;-51
2022/03/27 10:27:20;;;;;;;24.25;11.40;;;;;;;;;;5055467;28;20049;-53
2022/03/27 10:29:47;;;;;;;21.45;12.80;;;;;;;;;;5055100;28;20029;-55
2022/03/27 10:32:13;;;;;;;21.05;12.77;;;;;;;;;;5055529;28;20020;-52
2022/03/27 10:34:57;;;;;;;25.63;12.60;;;;;;;;;;5055532;28;20035;-51
2022/03/27 10:37:35;;;;;;;24.48;12.45;;;;;;;;;;5054116;28;20112;-53
2022/03/27 10:40:05;;;;;;;23.42;11.82;;;;;;;;;;5055265;28;20101;-49
2022/03/27 10:42:31;;;;;;;27.97;12.50;;;;;;;;;;5054632;28;20107;-54
2022/03/27 10:45:08;;;;;;;20.90;11.43;;;;;;;;;;5055299;28;20025;-49
2022/03/27 10:47:35;;;;;;;29.52;12.30;;;;;;;;;;5055096;28;20060;-52
2022/03/27 10:50:01;;;;;;;22.17;11.57;;;;;;;;;;5055004;28;20028;-54
2022/03/27 10:52:31;;;;;;;22.15;12.27;;;;;;;;;;5054889;28;20040;-49
2022/03/27 10:55:02;;;;;;;21.92;11.68;;;;;;;;;;5054847;28;20144;-50
2022/03/27 10:57:32;;;;;;;23.88;13.07;;;;;;;;;;5054953;28;20035;-51
2022/03/27 10:59:58;;;;;;;26.63;12.00;;;;;;;;;;5055043;28;20025;-49
2022/03/27 11:02:44;;;;;;;21.15;12.55;;;;;;;;;;5054999;28;20017;-56
2022/03/27 11:05:36;;;;;;;19.42;12.43;;;;;;;;;;5054744;28;20025;-51
2022/03/27 11:08:17;;;;;;;22.98;12.23;;;;;;;;;;5054730;28;20112;-52
2022/03/27 11:10:43;;;;;;;20.38;12.45;;;;;;;;;;5054413;28;20021;-52
2022/03/27 11:13:33;;;;;;;18.48;12.35;;;;;;;;;;5054415;28;20150;-56
2022/03/27 11:16:17;;;;;;;24.77;11.75;;;;;;;;;;5054254;28;20032;-50
2022/03/27 11:18:50;;;;;;;20.65;11.63;;;;;;;;;;5054231;28;20035;-55
2022/03/27 11:21:40;;;;;;;21.05;11.55;;;;;;;;;;5054348;28;20485;-51
2022/03/27 11:24:07;;;;;;;21.65;13.38;;;;;;;;;;5053948;28;20029;-49
2022/03/27 11:26:35;;;;;;;25.60;13.80;;;;;;;;;;5051803;28;20155;-49
2022/03/27 11:29:05;;;;;;;24.65;13.73;;;;;;;;;;5052642;28;20029;-53
2022/03/27 11:31:35;;;;;;;18.80;12.00;;;;;;;;;;5051279;28;20014;-53
2022/03/27 11:34:14;;;;;;;21.83;12.45;;;;;;;;;;5053832;28;20106;-54
2022/03/27 11:36:44;;;;;;;19.40;11.95;;;;;;;;;;5054578;28;20083;-55
2022/03/27 11:39:11;;;;;;;24.52;11.70;;;;;;;;;;5054004;28;20017;-56
2022/03/27 11:41:42;;;;;;;25.00;11.93;;;;;;;;;;5054312;28;20063;-50
2022/03/27 11:44:18;;;;;;;20.70;11.73;;;;;;;;;;5054257;28;20474;-55
2022/03/27 11:46:45;;;;;;;18.35;11.55;;;;;;;;;;5053477;28;20032;-52
2022/03/27 11:49:11;;;;;;;19.08;11.05;;;;;;;;;;5054350;28;20021;-51
2022/03/27 11:51:38;;;;;;;19.95;10.95;;;;;;;;;;5054025;28;20036;-56
2022/03/27 11:54:16;;;;;;;20.15;12.35;;;;;;;;;;5053661;28;20111;-54
2022/03/27 11:56:56;;;;;;;17.45;11.23;;;;;;;;;;5052958;28;20032;-51
2022/03/27 11:59:25;;;;;;;20.75;11.85;;;;;;;;;;5053880;28;20032;-51
2022/03/27 12:01:52;;;;;;;22.17;12.38;;;;;;;;;;5053805;28;20527;-53
2022/03/27 12:04:19;;;;;;;22.40;11.40;;;;;;;;;;5054154;28;20021;-52
2022/03/27 12:06:46;;;;;;;18.58;11.10;;;;;;;;;;5053378;28;20025;-54
2022/03/27 12:09:28;;;;;;;21.33;11.05;;;;;;;;;;5053473;28;20021;-48
2022/03/27 12:12:11;;;;;;;23.55;12.98;;;;;;;;;;5053520;28;20066;-53
2022/03/27 12:15:10;;;;;;;17.98;12.05;;;;;;;;;;5053398;28;20032;-53
2022/03/27 12:17:46;;;;;;;21.40;12.15;;;;;;;;;;5040658;28;20037;-53
2022/03/27 12:20:14;;;;;;;19.13;11.00;;;;;;;;;;5053309;28;20051;-53
2022/03/27 12:22:44;;;;;;;19.20;11.82;;;;;;;;;;5053526;28;20036;-49
2022/03/27 12:25:16;;;;;;;17.17;11.45;;;;;;;;;;5053602;28;20017;-52
2022/03/27 12:30:37;;;;;;;15.48;10.80;;;;;;;;;;5053505;28;20040;-54
2022/03/27 12:33:04;;;;;;;18.67;11.65;;;;;;;;;;5052740;28;20053;-52
2022/03/27 12:35:31;;;;;;;17.73;9.93;;;;;;;;;;5053285;28;20029;-49
2022/03/27 12:37:58;;;;;;;14.23;10.27;;;;;;;;;;5053168;28;20454;-51
2022/03/27 12:40:25;;;;;;;16.02;10.68;;;;;;;;;;5053473;28;20100;-49
2022/03/27 12:42:52;;;;;;;18.33;10.18;;;;;;;;;;5053921;28;20025;-52
2022/03/27 12:45:24;;;;;;;17.92;10.82;;;;;;;;;;5057637;28;20025;-51
2022/03/27 12:47:58;;;;;;;16.90;10.55;;;;;;;;;;5057625;28;20520;-52
2022/03/27 12:50:33;;;;;;;18.38;11.63;;;;;;;;;;5057305;28;20505;-55
2022/03/27 12:53:12;;;;;;;16.00;10.00;;;;;;;;;;5037393;28;20033;-54
2022/03/27 12:55:42;;;;;;;17.38;10.27;;;;;;;;;;5037006;28;20022;-53
2022/03/27 12:58:08;;;;;;;;;;;;;;;;;;5037925;28;20060;-53
2022/03/27 13:00:34;;;;;;;21.48;11.32;;;;;;;;;;5037395;28;19933;-50
2022/03/27 13:03:10;;;;;;;19.15;10.23;;;;;;;;;;5036854;28;20026;-50
2022/03/27 13:05:36;;;;;;;14.55;9.98;;;;;;;;;;5037167;28;20025;-53
2022/03/27 13:08:02;;;;;;;17.75;10.35;;;;;;;;;;5037087;28;20040;-56
2022/03/27 13:10:29;;;;;;;18.00;9.60;;;;;;;;;;5036711;28;20021;-55
2022/03/27 13:12:58;;;;;;;20.15;11.20;;;;;;;;;;5036788;28;20060;-52
2022/03/27 13:15:37;;;;;;;20.05;12.35;;;;;;;;;;5037241;28;20028;-50
2022/03/27 13:18:06;;;;;;;20.20;11.07;;;;;;;;;;5036445;28;20048;-55
2022/03/27 13:20:34;;;;;;;21.58;10.45;;;;;;;;;;5037250;28;20035;-55
2022/03/27 13:23:00;;;;;;;18.33;10.10;;;;;;;;;;5036290;28;20032;-53
2022/03/27 13:25:26;;;;;;;20.30;11.55;;;;;;;;;;5036501;28;20105;-54
2022/03/27 13:27:53;;;;;;;14.40;9.90;;;;;;;;;;5036968;28;20053;-51
2022/03/27 13:30:20;;;;;;;18.50;9.93;;;;;;;;;;5036223;28;20095;-55
2022/03/27 13:32:46;;;;;;;16.27;9.10;;;;;;;;;;5036751;28;20101;-57
2022/03/27 13:35:12;;;;;;;16.27;9.27;;;;;;;;;;5036671;28;20362;-49
2022/03/27 13:37:38;;;;;;;14.95;8.38;;;;;;;;;;5036053;28;20021;-53
2022/03/27 13:40:05;;;;;;;15.07;7.80;;;;;;;;;;5036753;28;20026;-49
2022/03/27 13:45:16;;;;;;;17.17;8.75;;;;;;;;;;5036041;28;20394;-55
2022/03/27 13:47:45;;;;;;;12.65;8.55;;;;;;;;;;5036461;28;20151;-54
2022/03/27 13:50:11;;;;;;;12.90;8.17;;;;;;;;;;5036255;28;20088;-52
2022/03/27 13:52:47;;;;;;;16.05;9.40;;;;;;;;;;5035365;28;20032;-59
2022/03/27 13:55:16;;;;;;;18.63;8.73;;;;;;;;;;5034276;28;20098;-55
2022/03/27 13:57:42;;;;;;;15.95;9.05;;;;;;;;;;5035740;28;20040;-53
2022/03/27 14:00:08;;;;;;;14.85;8.77;;;;;;;;;;5034302;28;20024;-52
2022/03/27 14:02:35;;;;;;;13.50;8.27;;;;;;;;;;5036102;28;20022;-55
2022/03/27 14:05:02;;;;;;;12.13;7.75;;;;;;;;;;5035805;28;20466;-55
2022/03/27 14:07:28;;;;;;;13.57;7.90;;;;;;;;;;5035783;28;20036;-54
2022/03/27 14:09:55;;;;;;;16.63;7.97;;;;;;;;;;5035995;28;20021;-52
2022/03/27 14:12:21;;;;;;;13.27;8.27;;;;;;;;;;5035946;28;20025;-58
2022/03/27 14:14:47;;;;;;;13.30;8.10;;;;;;;;;;5036134;28;20029;-54
2022/03/27 14:17:13;;;;;;;13.20;9.63;;;;;;;;;;5035629;28;20040;-51
2022/03/27 14:19:39;;;;;;;10.15;7.35;;;;;;;;;;5035571;28;20021;-51
2022/03/27 14:22:05;;;;;;;15.23;7.72;;;;;;;;;;5035883;28;20111;-52
2022/03/27 14:24:32;;;;;;;14.35;7.00;;;;;;;;;;5035821;28;20475;-51
2022/03/27 14:26:58;;;;;;;13.50;8.13;;;;;;;;;;5035045;28;20092;-52
2022/03/27 14:29:24;;;;;;;12.50;7.28;;;;;;;;;;5035692;28;20025;-53
2022/03/27 14:31:52;;;;;;;16.60;8.15;;;;;;;;;;5035629;28;20374;-54
2022/03/27 14:34:21;;;;;;;12.07;7.28;;;;;;;;;;5035108;28;20417;-53